sensor_id;sensor_type;location;lat;lon;timestamp;P1;durP1;ratioP1;P2;durP2;ratioP2
43337;SDS011;28933;52.492;13.434;2023-06-14T00:00:31;5.38;;;2.63;;
43337;SDS011;28933;52.492;13.434;2023-06-14T00:03:17;4.35;;;2.13;;
43337;SDS011;28933;52.492;13.434;2023-06-14T00:06:03;4.47;;;1.83;;
43337;SDS011;28933;52.492;13.434;2023-06-14T00:08:49;8.02;;;2.42;;
43337;SDS011;28933;52.492;13.434;2023-06-14T00:11:35;4.68;;;2.53;;
43337;SDS011;28933;52.492;13.434;2023-06-14T00:14:21;4.05;;;2.47;;
43337;SDS011;28933;52.492;13.434;2023-06-14T00:17:07;4.15;;;2.20;;
43337;SDS011;28933;52.492;13.434;2023-06-14T00:19:54;3.67;;;2.20;;
43337;SDS011;28933;52.492;13.434;2023-06-14T00:22:45;4.80;;;2.00;;
43337;SDS011;28933;52.492;13.434;2023-06-14T00:25:31;3.60;;;2.20;;
43337;SDS011;28933;52.492;13.434;2023-06-14T00:28:16;3.88;;;2.42;;
43337;SDS011;28933;52.492;13.434;2023-06-14T00:31:02;3.40;;;2.13;;
43337;SDS011;28933;52.492;13.434;2023-06-14T00:33:48;5.35;;;2.38;;
43337;SDS011;28933;52.492;13.434;2023-06-14T00:36:34;3.60;;;2.53;;
43337;SDS011;28933;52.492;13.434;2023-06-14T00:39:20;3.38;;;2.08;;
43337;SDS011;28933;52.492;13.434;2023-06-14T00:42:06;4.15;;;2.30;;
43337;SDS011;28933;52.492;13.434;2023-06-14T00:44:52;3.60;;;2.03;;
43337;SDS011;28933;52.492;13.434;2023-06-14T00:47:38;5.00;;;2.50;;
43337;SDS011;28933;52.492;13.434;2023-06-14T00:50:27;4.85;;;2.75;;
43337;SDS011;28933;52.492;13.434;2023-06-14T00:53:15;5.68;;;2.22;;
43337;SDS011;28933;52.492;13.434;2023-06-14T00:56:02;5.07;;;2.40;;
43337;SDS011;28933;52.492;13.434;2023-06-14T00:58:49;3.55;;;2.30;;
43337;SDS011;28933;52.492;13.434;2023-06-14T01:01:36;3.38;;;2.20;;
43337;SDS011;28933;52.492;13.434;2023-06-14T01:04:24;5.82;;;2.92;;
43337;SDS011;28933;52.492;13.434;2023-06-14T01:07:12;3.20;;;2.17;;
43337;SDS011;28933;52.492;13.434;2023-06-14T01:10:18;5.00;;;2.83;;
43337;SDS011;28933;52.492;13.434;2023-06-14T01:13:18;3.55;;;2.63;;
43337;SDS011;28933;52.492;13.434;2023-06-14T01:16:07;3.92;;;2.92;;
43337;SDS011;28933;52.492;13.434;2023-06-14T01:18:54;5.00;;;3.05;;
43337;SDS011;28933;52.492;13.434;2023-06-14T01:21:41;5.53;;;2.92;;
43337;SDS011;28933;52.492;13.434;2023-06-14T01:24:27;6.55;;;3.17;;
43337;SDS011;28933;52.492;13.434;2023-06-14T01:27:24;5.93;;;2.88;;
43337;SDS011;28933;52.492;13.434;2023-06-14T01:30:14;3.70;;;2.55;;
43337;SDS011;28933;52.492;13.434;2023-06-14T01:33:00;7.30;;;4.22;;
43337;SDS011;28933;52.492;13.434;2023-06-14T01:35:47;5.45;;;2.78;;
43337;SDS011;28933;52.492;13.434;2023-06-14T01:38:35;5.28;;;2.97;;
43337;SDS011;28933;52.492;13.434;2023-06-14T01:41:22;6.85;;;3.65;;
43337;SDS011;28933;52.492;13.434;2023-06-14T01:44:09;5.57;;;3.40;;
43337;SDS011;28933;52.492;13.434;2023-06-14T01:46:57;7.38;;;3.47;;
43337;SDS011;28933;52.492;13.434;2023-06-14T01:49:45;4.15;;;3.03;;
43337;SDS011;28933;52.492;13.434;2023-06-14T01:52:32;4.03;;;2.90;;
43337;SDS011;28933;52.492;13.434;2023-06-14T01:55:18;7.70;;;3.63;;
43337;SDS011;28933;52.492;13.434;2023-06-14T01:58:04;5.18;;;3.10;;
43337;SDS011;28933;52.492;13.434;2023-06-14T02:00:50;4.88;;;3.42;;
43337;SDS011;28933;52.492;13.434;2023-06-14T02:03:36;10.35;;;3.30;;
43337;SDS011;28933;52.492;13.434;2023-06-14T02:06:24;5.07;;;3.20;;
43337;SDS011;28933;52.492;13.434;2023-06-14T02:09:11;4.45;;;2.95;;
43337;SDS011;28933;52.492;13.434;2023-06-14T02:11:57;4.75;;;3.42;;
43337;SDS011;28933;52.492;13.434;2023-06-14T02:14:43;6.60;;;4.13;;
43337;SDS011;28933;52.492;13.434;2023-06-14T02:17:30;5.47;;;3.78;;
43337;SDS011;28933;52.492;13.434;2023-06-14T02:20:15;5.00;;;3.45;;
43337;SDS011;28933;52.492;13.434;2023-06-14T02:23:02;5.13;;;3.40;;
43337;SDS011;28933;52.492;13.434;2023-06-14T02:25:48;5.05;;;3.38;;
43337;SDS011;28933;52.492;13.434;2023-06-14T02:28:33;6.03;;;3.78;;
43337;SDS011;28933;52.492;13.434;2023-06-14T02:31:20;6.15;;;4.13;;
43337;SDS011;28933;52.492;13.434;2023-06-14T02:34:06;5.47;;;3.92;;
43337;SDS011;28933;52.492;13.434;2023-06-14T02:36:55;5.95;;;3.90;;
43337;SDS011;28933;52.492;13.434;2023-06-14T02:39:42;6.30;;;3.90;;
43337;SDS011;28933;52.492;13.434;2023-06-14T02:42:28;9.10;;;3.78;;
43337;SDS011;28933;52.492;13.434;2023-06-14T02:45:14;4.78;;;3.47;;
43337;SDS011;28933;52.492;13.434;2023-06-14T02:48:03;7.25;;;3.95;;
43337;SDS011;28933;52.492;13.434;2023-06-14T02:50:49;4.28;;;3.10;;
43337;SDS011;28933;52.492;13.434;2023-06-14T02:53:35;5.95;;;3.85;;
43337;SDS011;28933;52.492;13.434;2023-06-14T02:56:22;7.07;;;3.75;;
43337;SDS011;28933;52.492;13.434;2023-06-14T02:59:08;6.85;;;4.15;;
43337;SDS011;28933;52.492;13.434;2023-06-14T03:01:54;6.53;;;4.13;;
43337;SDS011;28933;52.492;13.434;2023-06-14T03:04:40;5.28;;;4.30;;
43337;SDS011;28933;52.492;13.434;2023-06-14T03:07:29;6.22;;;3.55;;
43337;SDS011;28933;52.492;13.434;2023-06-14T03:10:15;6.10;;;4.38;;
43337;SDS011;28933;52.492;13.434;2023-06-14T03:13:01;7.53;;;3.83;;
43337;SDS011;28933;52.492;13.434;2023-06-14T03:15:47;5.57;;;4.13;;
43337;SDS011;28933;52.492;13.434;2023-06-14T03:18:36;6.57;;;4.20;;
43337;SDS011;28933;52.492;13.434;2023-06-14T03:21:22;7.03;;;4.32;;
43337;SDS011;28933;52.492;13.434;2023-06-14T03:24:08;7.75;;;4.38;;
43337;SDS011;28933;52.492;13.434;2023-06-14T03:26:54;6.18;;;4.25;;
43337;SDS011;28933;52.492;13.434;2023-06-14T03:29:40;5.43;;;3.92;;
43337;SDS011;28933;52.492;13.434;2023-06-14T03:32:26;6.32;;;4.22;;
43337;SDS011;28933;52.492;13.434;2023-06-14T03:35:12;6.07;;;4.53;;
43337;SDS011;28933;52.492;13.434;2023-06-14T03:38:02;6.30;;;4.10;;
43337;SDS011;28933;52.492;13.434;2023-06-14T03:40:49;5.97;;;4.03;;
43337;SDS011;28933;52.492;13.434;2023-06-14T03:43:35;8.55;;;4.20;;
43337;SDS011;28933;52.492;13.434;2023-06-14T03:46:20;5.88;;;4.07;;
43337;SDS011;28933;52.492;13.434;2023-06-14T03:49:06;6.25;;;4.68;;
43337;SDS011;28933;52.492;13.434;2023-06-14T03:51:53;6.00;;;3.83;;
43337;SDS011;28933;52.492;13.434;2023-06-14T03:54:38;7.25;;;5.03;;
43337;SDS011;28933;52.492;13.434;2023-06-14T03:57:25;6.53;;;4.75;;
43337;SDS011;28933;52.492;13.434;2023-06-14T04:00:11;8.02;;;4.40;;
43337;SDS011;28933;52.492;13.434;2023-06-14T04:02:58;6.15;;;4.68;;
43337;SDS011;28933;52.492;13.434;2023-06-14T04:05:43;10.48;;;4.35;;
43337;SDS011;28933;52.492;13.434;2023-06-14T04:08:29;10.02;;;4.82;;
43337;SDS011;28933;52.492;13.434;2023-06-14T04:11:15;7.03;;;4.18;;
43337;SDS011;28933;52.492;13.434;2023-06-14T04:14:02;6.50;;;4.05;;
43337;SDS011;28933;52.492;13.434;2023-06-14T04:16:48;5.43;;;4.43;;
43337;SDS011;28933;52.492;13.434;2023-06-14T04:19:35;6.97;;;3.83;;
43337;SDS011;28933;52.492;13.434;2023-06-14T04:22:21;6.30;;;4.28;;
43337;SDS011;28933;52.492;13.434;2023-06-14T04:25:07;6.60;;;4.50;;
43337;SDS011;28933;52.492;13.434;2023-06-14T04:27:53;9.05;;;4.93;;
43337;SDS011;28933;52.492;13.434;2023-06-14T04:30:40;8.13;;;4.55;;
43337;SDS011;28933;52.492;13.434;2023-06-14T04:33:26;7.13;;;4.55;;
43337;SDS011;28933;52.492;13.434;2023-06-14T04:36:12;5.68;;;4.22;;
43337;SDS011;28933;52.492;13.434;2023-06-14T04:38:58;6.55;;;4.22;;
43337;SDS011;28933;52.492;13.434;2023-06-14T04:41:44;9.02;;;4.53;;
43337;SDS011;28933;52.492;13.434;2023-06-14T04:44:30;8.68;;;4.45;;
43337;SDS011;28933;52.492;13.434;2023-06-14T04:47:17;5.80;;;4.07;;
43337;SDS011;28933;52.492;13.434;2023-06-14T04:50:03;7.18;;;4.93;;
43337;SDS011;28933;52.492;13.434;2023-06-14T04:52:49;6.07;;;4.30;;
43337;SDS011;28933;52.492;13.434;2023-06-14T04:55:36;8.13;;;4.25;;
43337;SDS011;28933;52.492;13.434;2023-06-14T04:58:22;8.88;;;4.75;;
43337;SDS011;28933;52.492;13.434;2023-06-14T05:01:09;6.60;;;4.85;;
43337;SDS011;28933;52.492;13.434;2023-06-14T05:03:54;9.57;;;4.70;;
43337;SDS011;28933;52.492;13.434;2023-06-14T05:06:41;6.32;;;4.55;;
43337;SDS011;28933;52.492;13.434;2023-06-14T05:09:30;9.85;;;4.97;;
43337;SDS011;28933;52.492;13.434;2023-06-14T05:12:16;7.47;;;4.18;;
43337;SDS011;28933;52.492;13.434;2023-06-14T05:15:03;8.73;;;5.10;;
43337;SDS011;28933;52.492;13.434;2023-06-14T05:17:50;5.65;;;4.20;;
43337;SDS011;28933;52.492;13.434;2023-06-14T05:20:40;9.63;;;4.63;;
43337;SDS011;28933;52.492;13.434;2023-06-14T05:23:29;8.57;;;5.07;;
43337;SDS011;28933;52.492;13.434;2023-06-14T05:26:15;7.43;;;4.38;;
43337;SDS011;28933;52.492;13.434;2023-06-14T05:29:01;12.57;;;4.25;;
43337;SDS011;28933;52.492;13.434;2023-06-14T05:31:48;8.57;;;4.95;;
43337;SDS011;28933;52.492;13.434;2023-06-14T05:34:34;7.00;;;4.60;;
43337;SDS011;28933;52.492;13.434;2023-06-14T05:37:20;9.43;;;4.35;;
43337;SDS011;28933;52.492;13.434;2023-06-14T05:40:06;7.20;;;4.18;;
43337;SDS011;28933;52.492;13.434;2023-06-14T05:42:54;11.27;;;4.65;;
43337;SDS011;28933;52.492;13.434;2023-06-14T05:45:40;9.10;;;4.53;;
43337;SDS011;28933;52.492;13.434;2023-06-14T05:48:26;7.85;;;4.40;;
43337;SDS011;28933;52.492;13.434;2023-06-14T05:51:11;7.68;;;4.65;;
43337;SDS011;28933;52.492;13.434;2023-06-14T05:53:57;8.73;;;4.20;;
43337;SDS011;28933;52.492;13.434;2023-06-14T05:56:43;9.25;;;4.90;;
43337;SDS011;28933;52.492;13.434;2023-06-14T05:59:29;11.43;;;4.75;;
43337;SDS011;28933;52.492;13.434;2023-06-14T06:02:15;11.73;;;4.93;;
43337;SDS011;28933;52.492;13.434;2023-06-14T06:05:01;7.63;;;4.45;;
43337;SDS011;28933;52.492;13.434;2023-06-14T06:07:47;8.27;;;5.22;;
43337;SDS011;28933;52.492;13.434;2023-06-14T06:10:33;8.70;;;5.05;;
43337;SDS011;28933;52.492;13.434;2023-06-14T06:13:19;10.80;;;5.63;;
43337;SDS011;28933;52.492;13.434;2023-06-14T06:16:05;8.15;;;4.78;;
43337;SDS011;28933;52.492;13.434;2023-06-14T06:18:51;9.27;;;4.40;;
43337;SDS011;28933;52.492;13.434;2023-06-14T06:21:37;6.20;;;4.20;;
43337;SDS011;28933;52.492;13.434;2023-06-14T06:24:23;13.02;;;5.65;;
43337;SDS011;28933;52.492;13.434;2023-06-14T06:27:09;6.80;;;4.50;;
43337;SDS011;28933;52.492;13.434;2023-06-14T06:29:55;8.27;;;4.72;;
43337;SDS011;28933;52.492;13.434;2023-06-14T06:32:41;5.97;;;4.00;;
43337;SDS011;28933;52.492;13.434;2023-06-14T06:35:27;7.00;;;4.25;;
43337;SDS011;28933;52.492;13.434;2023-06-14T06:38:14;7.45;;;4.43;;
43337;SDS011;28933;52.492;13.434;2023-06-14T06:41:00;7.55;;;4.85;;
43337;SDS011;28933;52.492;13.434;2023-06-14T06:43:46;7.22;;;4.05;;
43337;SDS011;28933;52.492;13.434;2023-06-14T06:46:32;7.28;;;3.95;;
43337;SDS011;28933;52.492;13.434;2023-06-14T06:49:18;9.07;;;4.13;;
43337;SDS011;28933;52.492;13.434;2023-06-14T06:52:05;8.25;;;4.07;;
43337;SDS011;28933;52.492;13.434;2023-06-14T06:54:52;6.82;;;4.38;;
43337;SDS011;28933;52.492;13.434;2023-06-14T06:57:40;6.57;;;4.18;;
43337;SDS011;28933;52.492;13.434;2023-06-14T07:00:26;5.65;;;4.22;;
43337;SDS011;28933;52.492;13.434;2023-06-14T07:03:12;8.95;;;3.97;;
43337;SDS011;28933;52.492;13.434;2023-06-14T07:05:58;6.90;;;3.97;;
43337;SDS011;28933;52.492;13.434;2023-06-14T07:08:44;6.38;;;3.80;;
43337;SDS011;28933;52.492;13.434;2023-06-14T07:11:31;4.35;;;3.10;;
43337;SDS011;28933;52.492;13.434;2023-06-14T07:14:17;6.72;;;3.75;;
43337;SDS011;28933;52.492;13.434;2023-06-14T07:17:03;7.50;;;4.15;;
43337;SDS011;28933;52.492;13.434;2023-06-14T07:19:50;15.90;;;4.55;;
43337;SDS011;28933;52.492;13.434;2023-06-14T07:22:36;7.13;;;3.97;;
43337;SDS011;28933;52.492;13.434;2023-06-14T07:25:26;6.18;;;4.40;;
43337;SDS011;28933;52.492;13.434;2023-06-14T07:28:12;5.38;;;3.75;;
43337;SDS011;28933;52.492;13.434;2023-06-14T07:30:58;5.22;;;3.97;;
43337;SDS011;28933;52.492;13.434;2023-06-14T07:33:44;6.30;;;3.83;;
43337;SDS011;28933;52.492;13.434;2023-06-14T07:36:30;4.53;;;3.20;;
43337;SDS011;28933;52.492;13.434;2023-06-14T07:39:16;6.68;;;4.07;;
43337;SDS011;28933;52.492;13.434;2023-06-14T07:42:02;5.63;;;3.40;;
43337;SDS011;28933;52.492;13.434;2023-06-14T07:44:48;5.25;;;3.58;;
43337;SDS011;28933;52.492;13.434;2023-06-14T07:47:36;7.20;;;3.53;;
43337;SDS011;28933;52.492;13.434;2023-06-14T07:50:22;8.82;;;4.65;;
43337;SDS011;28933;52.492;13.434;2023-06-14T07:53:08;6.38;;;3.35;;
43337;SDS011;28933;52.492;13.434;2023-06-14T07:55:54;7.22;;;4.43;;
43337;SDS011;28933;52.492;13.434;2023-06-14T07:58:40;5.85;;;4.05;;
43337;SDS011;28933;52.492;13.434;2023-06-14T08:01:26;10.75;;;4.10;;
43337;SDS011;28933;52.492;13.434;2023-06-14T08:04:13;4.85;;;3.05;;
43337;SDS011;28933;52.492;13.434;2023-06-14T08:07:00;6.03;;;3.67;;
43337;SDS011;28933;52.492;13.434;2023-06-14T08:09:46;9.05;;;3.60;;
43337;SDS011;28933;52.492;13.434;2023-06-14T08:12:32;5.43;;;3.40;;
43337;SDS011;28933;52.492;13.434;2023-06-14T08:15:19;5.20;;;3.40;;
43337;SDS011;28933;52.492;13.434;2023-06-14T08:18:05;5.85;;;3.42;;
43337;SDS011;28933;52.492;13.434;2023-06-14T08:20:51;5.18;;;3.45;;
43337;SDS011;28933;52.492;13.434;2023-06-14T08:23:37;6.10;;;3.10;;
43337;SDS011;28933;52.492;13.434;2023-06-14T08:26:23;4.22;;;3.03;;
43337;SDS011;28933;52.492;13.434;2023-06-14T08:29:09;5.88;;;3.35;;
43337;SDS011;28933;52.492;13.434;2023-06-14T08:31:55;5.22;;;2.90;;
43337;SDS011;28933;52.492;13.434;2023-06-14T08:34:41;15.38;;;4.18;;
43337;SDS011;28933;52.492;13.434;2023-06-14T08:37:27;4.50;;;3.10;;
43337;SDS011;28933;52.492;13.434;2023-06-14T08:40:20;5.40;;;2.67;;
43337;SDS011;28933;52.492;13.434;2023-06-14T08:43:08;5.65;;;3.13;;
43337;SDS011;28933;52.492;13.434;2023-06-14T08:45:58;6.32;;;3.13;;
43337;SDS011;28933;52.492;13.434;2023-06-14T08:48:48;6.53;;;3.08;;
43337;SDS011;28933;52.492;13.434;2023-06-14T08:51:35;4.20;;;2.72;;
43337;SDS011;28933;52.492;13.434;2023-06-14T08:54:22;6.07;;;3.08;;
43337;SDS011;28933;52.492;13.434;2023-06-14T08:57:12;5.45;;;2.88;;
43337;SDS011;28933;52.492;13.434;2023-06-14T09:00:00;4.47;;;2.40;;
43337;SDS011;28933;52.492;13.434;2023-06-14T09:02:55;4.25;;;2.42;;
43337;SDS011;28933;52.492;13.434;2023-06-14T09:05:43;7.70;;;3.00;;
43337;SDS011;28933;52.492;13.434;2023-06-14T09:08:29;6.18;;;3.00;;
43337;SDS011;28933;52.492;13.434;2023-06-14T09:11:17;5.07;;;2.83;;
43337;SDS011;28933;52.492;13.434;2023-06-14T09:14:04;4.68;;;2.35;;
43337;SDS011;28933;52.492;13.434;2023-06-14T09:16:53;4.22;;;2.70;;
43337;SDS011;28933;52.492;13.434;2023-06-14T09:19:39;4.40;;;2.65;;
43337;SDS011;28933;52.492;13.434;2023-06-14T09:22:29;5.22;;;2.88;;
43337;SDS011;28933;52.492;13.434;2023-06-14T09:25:16;4.50;;;2.50;;
43337;SDS011;28933;52.492;13.434;2023-06-14T09:28:04;4.57;;;2.50;;
43337;SDS011;28933;52.492;13.434;2023-06-14T09:30:53;4.63;;;2.88;;
43337;SDS011;28933;52.492;13.434;2023-06-14T09:33:47;5.95;;;2.60;;
43337;SDS011;28933;52.492;13.434;2023-06-14T09:36:34;4.20;;;2.67;;
43337;SDS011;28933;52.492;13.434;2023-06-14T09:39:21;4.40;;;2.33;;
43337;SDS011;28933;52.492;13.434;2023-06-14T09:42:16;5.55;;;2.63;;
43337;SDS011;28933;52.492;13.434;2023-06-14T09:45:06;3.90;;;2.50;;
43337;SDS011;28933;52.492;13.434;2023-06-14T09:47:52;3.90;;;3.08;;
43337;SDS011;28933;52.492;13.434;2023-06-14T09:50:39;4.65;;;2.75;;
43337;SDS011;28933;52.492;13.434;2023-06-14T09:53:25;4.55;;;2.50;;
43337;SDS011;28933;52.492;13.434;2023-06-14T09:56:14;5.75;;;2.65;;
43337;SDS011;28933;52.492;13.434;2023-06-14T09:59:09;6.13;;;2.60;;
43337;SDS011;28933;52.492;13.434;2023-06-14T10:01:55;5.07;;;2.65;;
43337;SDS011;28933;52.492;13.434;2023-06-14T10:04:46;3.75;;;2.67;;
43337;SDS011;28933;52.492;13.434;2023-06-14T10:07:38;4.50;;;2.70;;
43337;SDS011;28933;52.492;13.434;2023-06-14T10:10:29;5.93;;;2.40;;
43337;SDS011;28933;52.492;13.434;2023-06-14T10:13:16;4.38;;;2.92;;
43337;SDS011;28933;52.492;13.434;2023-06-14T10:16:07;7.22;;;3.40;;
43337;SDS011;28933;52.492;13.434;2023-06-14T10:22:14;6.47;;;2.63;;
43337;SDS011;28933;52.492;13.434;2023-06-14T10:25:07;5.40;;;2.47;;
43337;SDS011;28933;52.492;13.434;2023-06-14T10:33:58;5.20;;;2.90;;
43337;SDS011;28933;52.492;13.434;2023-06-14T10:36:44;6.75;;;2.58;;
43337;SDS011;28933;52.492;13.434;2023-06-14T10:39:31;5.38;;;2.95;;
43337;SDS011;28933;52.492;13.434;2023-06-14T10:42:32;4.47;;;2.70;;
43337;SDS011;28933;52.492;13.434;2023-06-14T10:45:18;5.90;;;2.70;;
43337;SDS011;28933;52.492;13.434;2023-06-14T10:48:04;5.93;;;2.75;;
43337;SDS011;28933;52.492;13.434;2023-06-14T10:50:53;5.03;;;3.03;;
43337;SDS011;28933;52.492;13.434;2023-06-14T10:53:48;7.55;;;2.67;;
43337;SDS011;28933;52.492;13.434;2023-06-14T10:56:34;26.48;;;5.45;;
43337;SDS011;28933;52.492;13.434;2023-06-14T10:59:21;13.63;;;3.67;;
43337;SDS011;28933;52.492;13.434;2023-06-14T11:05:05;10.15;;;3.47;;
43337;SDS011;28933;52.492;13.434;2023-06-14T11:11:01;7.45;;;2.28;;
43337;SDS011;28933;52.492;13.434;2023-06-14T11:13:52;10.65;;;2.90;;
43337;SDS011;28933;52.492;13.434;2023-06-14T11:16:38;4.15;;;2.60;;
43337;SDS011;28933;52.492;13.434;2023-06-14T11:19:24;7.40;;;2.95;;
43337;SDS011;28933;52.492;13.434;2023-06-14T11:22:12;6.10;;;2.63;;
43337;SDS011;28933;52.492;13.434;2023-06-14T11:25:00;4.38;;;2.67;;
43337;SDS011;28933;52.492;13.434;2023-06-14T11:27:49;10.18;;;3.33;;
43337;SDS011;28933;52.492;13.434;2023-06-14T11:30:35;9.02;;;2.83;;
43337;SDS011;28933;52.492;13.434;2023-06-14T11:33:21;5.40;;;2.80;;
43337;SDS011;28933;52.492;13.434;2023-06-14T11:36:08;11.13;;;3.45;;
43337;SDS011;28933;52.492;13.434;2023-06-14T11:41:48;9.93;;;3.07;;
43337;SDS011;28933;52.492;13.434;2023-06-14T11:44:34;5.07;;;2.78;;
43337;SDS011;28933;52.492;13.434;2023-06-14T11:47:20;13.23;;;3.55;;
43337;SDS011;28933;52.492;13.434;2023-06-14T11:50:08;6.95;;;2.63;;
43337;SDS011;28933;52.492;13.434;2023-06-14T11:52:55;6.47;;;2.95;;
43337;SDS011;28933;52.492;13.434;2023-06-14T11:55:41;7.45;;;2.90;;
43337;SDS011;28933;52.492;13.434;2023-06-14T11:58:29;10.93;;;3.05;;
43337;SDS011;28933;52.492;13.434;2023-06-14T12:01:18;5.72;;;2.95;;
43337;SDS011;28933;52.492;13.434;2023-06-14T12:04:04;10.02;;;2.88;;
43337;SDS011;28933;52.492;13.434;2023-06-14T12:06:50;8.27;;;2.75;;
43337;SDS011;28933;52.492;13.434;2023-06-14T12:09:38;5.80;;;2.58;;
43337;SDS011;28933;52.492;13.434;2023-06-14T12:12:25;11.52;;;3.20;;
43337;SDS011;28933;52.492;13.434;2023-06-14T12:15:11;11.38;;;3.50;;
43337;SDS011;28933;52.492;13.434;2023-06-14T12:17:57;7.35;;;2.92;;
43337;SDS011;28933;52.492;13.434;2023-06-14T12:20:47;5.68;;;2.75;;
43337;SDS011;28933;52.492;13.434;2023-06-14T12:23:39;4.75;;;2.90;;
43337;SDS011;28933;52.492;13.434;2023-06-14T12:26:29;5.72;;;2.83;;
43337;SDS011;28933;52.492;13.434;2023-06-14T12:29:15;4.90;;;2.25;;
43337;SDS011;28933;52.492;13.434;2023-06-14T12:32:01;4.38;;;2.92;;
43337;SDS011;28933;52.492;13.434;2023-06-14T12:34:47;5.15;;;2.60;;
43337;SDS011;28933;52.492;13.434;2023-06-14T12:37:34;4.90;;;2.30;;
43337;SDS011;28933;52.492;13.434;2023-06-14T12:40:20;6.82;;;2.95;;
43337;SDS011;28933;52.492;13.434;2023-06-14T12:43:06;6.93;;;2.50;;
43337;SDS011;28933;52.492;13.434;2023-06-14T12:45:52;7.53;;;2.72;;
43337;SDS011;28933;52.492;13.434;2023-06-14T12:48:38;9.15;;;3.00;;
43337;SDS011;28933;52.492;13.434;2023-06-14T12:51:24;5.50;;;2.25;;
43337;SDS011;28933;52.492;13.434;2023-06-14T12:54:10;9.15;;;3.10;;
43337;SDS011;28933;52.492;13.434;2023-06-14T12:56:57;9.45;;;3.17;;
43337;SDS011;28933;52.492;13.434;2023-06-14T12:59:43;5.38;;;2.13;;
43337;SDS011;28933;52.492;13.434;2023-06-14T13:02:29;8.98;;;3.08;;
43337;SDS011;28933;52.492;13.434;2023-06-14T13:05:15;5.55;;;2.83;;
43337;SDS011;28933;52.492;13.434;2023-06-14T13:08:01;6.22;;;2.45;;
43337;SDS011;28933;52.492;13.434;2023-06-14T13:10:47;7.55;;;3.20;;
43337;SDS011;28933;52.492;13.434;2023-06-14T13:13:33;4.38;;;2.50;;
43337;SDS011;28933;52.492;13.434;2023-06-14T13:16:18;4.65;;;2.20;;
43337;SDS011;28933;52.492;13.434;2023-06-14T13:19:04;5.63;;;2.70;;
43337;SDS011;28933;52.492;13.434;2023-06-14T13:21:50;7.05;;;2.28;;
43337;SDS011;28933;52.492;13.434;2023-06-14T13:24:36;5.57;;;2.30;;
43337;SDS011;28933;52.492;13.434;2023-06-14T13:27:22;3.97;;;2.13;;
43337;SDS011;28933;52.492;13.434;2023-06-14T13:30:10;6.05;;;2.97;;
43337;SDS011;28933;52.492;13.434;2023-06-14T13:32:56;11.43;;;2.47;;
43337;SDS011;28933;52.492;13.434;2023-06-14T13:35:42;7.07;;;2.55;;
43337;SDS011;28933;52.492;13.434;2023-06-14T13:38:28;8.30;;;3.00;;
43337;SDS011;28933;52.492;13.434;2023-06-14T13:41:14;4.68;;;2.50;;
43337;SDS011;28933;52.492;13.434;2023-06-14T13:44:00;9.45;;;2.75;;
43337;SDS011;28933;52.492;13.434;2023-06-14T13:46:49;8.05;;;2.47;;
43337;SDS011;28933;52.492;13.434;2023-06-14T13:49:35;7.85;;;3.13;;
43337;SDS011;28933;52.492;13.434;2023-06-14T13:52:21;6.47;;;2.30;;
43337;SDS011;28933;52.492;13.434;2023-06-14T13:55:07;5.78;;;2.97;;
43337;SDS011;28933;52.492;13.434;2023-06-14T13:57:54;6.45;;;2.78;;
43337;SDS011;28933;52.492;13.434;2023-06-14T14:00:41;6.80;;;2.53;;
43337;SDS011;28933;52.492;13.434;2023-06-14T14:03:27;6.35;;;2.75;;
43337;SDS011;28933;52.492;13.434;2023-06-14T14:06:13;7.57;;;2.90;;
43337;SDS011;28933;52.492;13.434;2023-06-14T14:08:59;5.47;;;2.33;;
43337;SDS011;28933;52.492;13.434;2023-06-14T14:11:45;6.68;;;2.58;;
43337;SDS011;28933;52.492;13.434;2023-06-14T14:14:34;6.53;;;2.67;;
43337;SDS011;28933;52.492;13.434;2023-06-14T14:17:20;3.05;;;2.03;;
43337;SDS011;28933;52.492;13.434;2023-06-14T14:20:07;6.07;;;3.10;;
43337;SDS011;28933;52.492;13.434;2023-06-14T14:22:53;8.15;;;3.08;;
43337;SDS011;28933;52.492;13.434;2023-06-14T14:25:39;5.40;;;2.60;;
43337;SDS011;28933;52.492;13.434;2023-06-14T14:28:25;5.15;;;2.90;;
43337;SDS011;28933;52.492;13.434;2023-06-14T14:31:11;7.40;;;2.72;;
43337;SDS011;28933;52.492;13.434;2023-06-14T14:33:57;7.20;;;2.42;;
43337;SDS011;28933;52.492;13.434;2023-06-14T14:36:43;4.07;;;2.90;;
43337;SDS011;28933;52.492;13.434;2023-06-14T14:39:29;7.85;;;2.83;;
43337;SDS011;28933;52.492;13.434;2023-06-14T14:42:15;6.18;;;3.15;;
43337;SDS011;28933;52.492;13.434;2023-06-14T14:45:02;5.80;;;2.05;;
43337;SDS011;28933;52.492;13.434;2023-06-14T14:47:48;3.90;;;2.22;;
43337;SDS011;28933;52.492;13.434;2023-06-14T14:50:34;5.45;;;2.78;;
43337;SDS011;28933;52.492;13.434;2023-06-14T14:53:20;5.40;;;2.10;;
43337;SDS011;28933;52.492;13.434;2023-06-14T14:56:06;6.90;;;2.88;;
43337;SDS011;28933;52.492;13.434;2023-06-14T14:58:52;11.88;;;2.83;;
43337;SDS011;28933;52.492;13.434;2023-06-14T15:01:38;4.47;;;2.42;;
43337;SDS011;28933;52.492;13.434;2023-06-14T15:04:24;5.72;;;2.13;;
43337;SDS011;28933;52.492;13.434;2023-06-14T15:07:10;4.85;;;3.10;;
43337;SDS011;28933;52.492;13.434;2023-06-14T15:09:56;4.45;;;2.80;;
43337;SDS011;28933;52.492;13.434;2023-06-14T15:12:42;3.95;;;2.30;;
43337;SDS011;28933;52.492;13.434;2023-06-14T15:15:28;7.85;;;2.75;;
43337;SDS011;28933;52.492;13.434;2023-06-14T15:18:14;6.40;;;2.58;;
43337;SDS011;28933;52.492;13.434;2023-06-14T15:21:02;4.68;;;2.58;;
43337;SDS011;28933;52.492;13.434;2023-06-14T15:23:48;7.03;;;3.08;;
43337;SDS011;28933;52.492;13.434;2023-06-14T15:26:35;5.10;;;3.15;;
43337;SDS011;28933;52.492;13.434;2023-06-14T15:29:21;4.03;;;2.28;;
43337;SDS011;28933;52.492;13.434;2023-06-14T15:32:07;5.00;;;2.70;;
43337;SDS011;28933;52.492;13.434;2023-06-14T15:34:54;9.02;;;3.25;;
43337;SDS011;28933;52.492;13.434;2023-06-14T15:37:40;4.85;;;2.38;;
43337;SDS011;28933;52.492;13.434;2023-06-14T15:40:26;6.35;;;3.00;;
43337;SDS011;28933;52.492;13.434;2023-06-14T15:43:13;6.80;;;2.53;;
43337;SDS011;28933;52.492;13.434;2023-06-14T15:45:59;5.57;;;2.88;;
43337;SDS011;28933;52.492;13.434;2023-06-14T15:48:46;4.38;;;2.25;;
43337;SDS011;28933;52.492;13.434;2023-06-14T15:51:32;6.22;;;2.22;;
43337;SDS011;28933;52.492;13.434;2023-06-14T15:54:17;3.17;;;2.30;;
43337;SDS011;28933;52.492;13.434;2023-06-14T15:57:03;5.18;;;2.67;;
43337;SDS011;28933;52.492;13.434;2023-06-14T15:59:50;7.88;;;2.05;;
43337;SDS011;28933;52.492;13.434;2023-06-14T16:02:35;5.25;;;2.58;;
43337;SDS011;28933;52.492;13.434;2023-06-14T16:05:21;6.60;;;2.67;;
43337;SDS011;28933;52.492;13.434;2023-06-14T16:08:07;7.03;;;2.72;;
43337;SDS011;28933;52.492;13.434;2023-06-14T16:10:53;5.15;;;2.28;;
43337;SDS011;28933;52.492;13.434;2023-06-14T16:13:41;6.97;;;2.92;;
43337;SDS011;28933;52.492;13.434;2023-06-14T16:16:27;13.48;;;2.95;;
43337;SDS011;28933;52.492;13.434;2023-06-14T16:19:13;5.45;;;3.08;;
43337;SDS011;28933;52.492;13.434;2023-06-14T16:21:59;6.32;;;2.78;;
43337;SDS011;28933;52.492;13.434;2023-06-14T16:24:45;9.82;;;3.05;;
43337;SDS011;28933;52.492;13.434;2023-06-14T16:27:31;4.47;;;2.70;;
43337;SDS011;28933;52.492;13.434;2023-06-14T16:30:17;3.95;;;2.70;;
43337;SDS011;28933;52.492;13.434;2023-06-14T16:33:03;4.32;;;2.45;;
43337;SDS011;28933;52.492;13.434;2023-06-14T16:35:49;5.45;;;2.45;;
43337;SDS011;28933;52.492;13.434;2023-06-14T16:38:35;5.05;;;2.50;;
43337;SDS011;28933;52.492;13.434;2023-06-14T16:41:21;4.60;;;2.45;;
43337;SDS011;28933;52.492;13.434;2023-06-14T16:44:07;5.88;;;2.70;;
43337;SDS011;28933;52.492;13.434;2023-06-14T16:46:53;4.72;;;2.28;;